Time;durP1;ratioP1;P1;durP2;ratioP2;P2;SDS_P1;SDS_P2;PMS_P1;PMS_P2;Temp;Humidity;BMP_temperature;BMP_pressure;BME280_temperature;BME280_humidity;BME280_pressure;Samples;Min_cycle;Max_cycle;Signal;HPM_P1;HPM_P2
2022/10/30 00:02:03;;;;;;;7.15;6.05;;;17.10;77.10;;;;;;5084975;28;20421;-65
2022/10/30 00:04:30;;;;;;;9.00;6.40;;;17.10;77.50;;;;;;5083238;28;20444;-66
2022/10/30 00:06:57;;;;;;;13.00;6.97;;;17.00;77.50;;;;;;5085363;28;20426;-64
2022/10/30 00:09:23;;;;;;;7.57;6.30;;;17.10;77.20;;;;;;5082542;28;20429;-64
2022/10/30 00:11:50;;;;;;;9.20;7.00;;;17.00;77.40;;;;;;5082686;28;20418;-67
2022/10/30 00:14:18;;;;;;;9.05;6.65;;;17.10;77.20;;;;;;5085379;28;20799;-66
2022/10/30 00:16:45;;;;;;;8.48;6.45;;;17.10;76.90;;;;;;5085742;28;20422;-66
2022/10/30 00:19:12;;;;;;;9.30;6.50;;;17.10;77.10;;;;;;5084449;28;20437;-66
2022/10/30 00:21:39;;;;;;;8.40;6.40;;;17.10;76.90;;;;;;5089736;28;20903;-66
2022/10/30 00:24:07;;;;;;;11.18;6.32;;;17.10;77.00;;;;;;5114983;22;20431;-77
2022/10/30 00:26:34;;;;;;;7.88;6.10;;;17.10;77.20;;;;;;5071444;28;20424;-77
2022/10/30 00:29:01;;;;;;;8.50;6.20;;;17.00;77.40;;;;;;5076299;28;20419;-78
2022/10/30 00:31:29;;;;;;;8.48;6.22;;;17.00;77.60;;;;;;5086411;28;20538;-77
2022/10/30 00:33:55;;;;;;;11.25;6.93;;;17.00;77.70;;;;;;5088553;28;20413;-73
2022/10/30 00:36:23;;;;;;;10.73;6.30;;;17.00;78.10;;;;;;5073862;28;20425;-75
2022/10/30 00:38:49;;;;;;;7.63;6.20;;;17.00;77.70;;;;;;5053643;28;20504;-76
2022/10/30 00:41:18;;;;;;;9.63;6.17;;;17.00;77.50;;;;;;5050502;28;20421;-76
2022/10/30 00:43:46;;;;;;;8.80;6.53;;;17.00;77.70;;;;;;5052200;28;20420;-76
2022/10/30 00:46:19;;;;;;;8.35;6.47;;;17.00;78.20;;;;;;5050529;28;20425;-77
2022/10/30 00:48:52;;;;;;;10.50;6.60;;;16.90;78.30;;;;;;5049932;28;20922;-75
2022/10/30 00:51:19;;;;;;;11.38;5.90;;;16.90;78.50;;;;;;5047548;28;20416;-77
2022/10/30 00:53:47;;;;;;;6.30;5.50;;;16.90;78.20;;;;;;5044793;28;20482;-77
2022/10/30 00:56:18;;;;;;;9.93;6.10;;;16.90;78.30;;;;;;5046505;28;20550;-76
2022/10/30 00:58:49;;;;;;;9.00;6.20;;;16.90;78.60;;;;;;5050754;28;20803;-77
2022/10/30 01:01:19;;;;;;;8.98;5.60;;;16.80;78.50;;;;;;5048769;28;20435;-76
2022/10/30 01:03:50;;;;;;;8.18;6.07;;;16.80;78.40;;;;;;5050266;28;20456;-74
2022/10/30 01:06:17;;;;;;;8.33;6.37;;;16.80;78.90;;;;;;5049133;28;20450;-79
2022/10/30 01:08:45;;;;;;;13.57;6.70;;;16.80;79.70;;;;;;5053804;28;20427;-77
2022/10/30 01:11:12;;;;;;;9.25;6.22;;;16.80;79.30;;;;;;5052393;28;20432;-76
2022/10/30 01:13:41;;;;;;;8.68;6.18;;;16.80;79.30;;;;;;5046177;28;20429;-76
2022/10/30 01:16:27;;;;;;;6.18;5.25;;;16.80;79.20;;;;;;5053004;28;20433;-77
2022/10/30 01:19:00;;;;;;;10.32;6.40;;;16.80;79.10;;;;;;5052984;28;20425;-75
2022/10/30 01:21:38;;;;;;;8.10;6.10;;;16.80;79.20;;;;;;5068165;28;20432;-78
2022/10/30 01:24:34;;;;;;;9.30;7.15;;;16.80;79.30;;;;;;5054788;28;20426;-75
2022/10/30 01:27:15;;;;;;;9.23;6.37;;;16.70;79.10;;;;;;5055085;28;20791;-76
2022/10/30 01:29:50;;;;;;;8.48;6.50;;;16.70;79.60;;;;;;5054966;28;21108;-77
2022/10/30 01:32:36;;;;;;;7.63;6.35;;;16.70;79.60;;;;;;5049729;28;20463;-78
2022/10/30 01:35:08;;;;;;;10.30;6.10;;;16.70;79.70;;;;;;5048135;28;20422;-75
2022/10/30 01:37:39;;;;;;;7.17;5.90;;;16.60;79.80;;;;;;5049447;28;20433;-75
2022/10/30 01:40:11;;;;;;;8.23;6.35;;;16.60;80.00;;;;;;5045519;28;20422;-77
2022/10/30 01:42:47;;;;;;;10.70;6.55;;;16.60;80.10;;;;;;5046107;28;20938;-76
2022/10/30 01:45:19;;;;;;;9.00;6.10;;;16.50;80.40;;;;;;5045106;28;20900;-76
2022/10/30 01:48:09;;;;;;;10.32;6.50;;;16.50;80.60;;;;;;5055416;28;20431;-75
2022/10/30 01:50:46;;;;;;;9.60;6.45;;;16.50;80.70;;;;;;5051350;28;20429;-74
2022/10/30 01:53:27;;;;;;;9.38;6.00;;;16.40;80.90;;;;;;5055775;28;20429;-77
2022/10/30 01:56:04;;;;;;;10.15;6.13;;;16.40;81.30;;;;;;5050493;28;20930;-76
2022/10/30 01:58:41;;;;;;;7.53;6.70;;;16.40;81.30;;;;;;5049593;28;20791;-76
2022/10/30 02:01:08;;;;;;;7.97;6.40;;;16.30;81.50;;;;;;5047494;28;20916;-77
2022/10/30 02:03:35;;;;;;;8.48;6.60;;;16.30;81.90;;;;;;5049427;28;20436;-77
2022/10/30 02:06:03;;;;;;;9.45;6.70;;;16.30;82.30;;;;;;5044324;28;20421;-77
2022/10/30 02:08:30;;;;;;;8.02;6.50;;;16.20;82.20;;;;;;5050609;28;20429;-76
2022/10/30 02:10:58;;;;;;;10.10;6.38;;;16.20;82.40;;;;;;5050606;28;20452;-76
2022/10/30 02:13:24;;;;;;;8.68;6.75;;;16.20;82.50;;;;;;5056949;28;20422;-75
2022/10/30 02:15:51;;;;;;;8.98;6.10;;;16.20;83.20;;;;;;5057648;28;20483;-75
2022/10/30 02:18:18;;;;;;;12.75;7.20;;;16.10;83.40;;;;;;5045916;28;20425;-76
2022/10/30 02:20:47;;;;;;;7.72;6.50;;;16.00;83.50;;;;;;5043461;28;20900;-77
2022/10/30 02:23:17;;;;;;;7.68;6.85;;;16.00;83.90;;;;;;5048651;28;20444;-77
2022/10/30 02:25:44;;;;;;;8.10;6.80;;;15.90;84.10;;;;;;5048224;28;20433;-76
2022/10/30 02:28:11;;;;;;;10.27;6.60;;;15.90;84.30;;;;;;5046543;28;20421;-78
2022/10/30 02:30:38;;;;;;;10.25;6.93;;;15.90;84.60;;;;;;5047700;28;20428;-76
2022/10/30 02:33:05;;;;;;;9.43;7.15;;;15.90;84.70;;;;;;5046886;28;20425;-76
2022/10/30 02:35:34;;;;;;;7.80;6.70;;;15.80;84.70;;;;;;5044447;28;20907;-76
2022/10/30 02:38:02;;;;;;;10.43;7.50;;;15.80;84.90;;;;;;5048961;28;20447;-76
2022/10/30 02:40:28;;;;;;;10.37;6.83;;;15.80;84.90;;;;;;5041402;28;20446;-75
2022/10/30 02:42:55;;;;;;;8.87;6.80;;;15.80;84.80;;;;;;5056740;28;20428;-77
2022/10/30 02:45:22;;;;;;;9.60;6.60;;;15.70;84.60;;;;;;5047878;28;20817;-75
2022/10/30 02:47:49;;;;;;;8.15;6.60;;;15.70;85.00;;;;;;5047011;28;20429;-76
2022/10/30 02:50:16;;;;;;;8.00;6.93;;;15.70;85.00;;;;;;5043757;28;20468;-76
2022/10/30 02:52:43;;;;;;;7.55;6.80;;;15.60;85.30;;;;;;5061416;28;20413;-75
2022/10/30 02:55:11;;;;;;;11.77;7.40;;;15.60;85.20;;;;;;5075291;28;20389;-76
2022/10/30 02:57:37;;;;;;;9.70;6.68;;;15.60;85.70;;;;;;5074547;28;20429;-74
2022/10/30 03:00:05;;;;;;;9.25;7.18;;;15.60;85.80;;;;;;5073697;28;20421;-75
2022/10/30 03:02:32;;;;;;;9.77;7.07;;;15.50;85.70;;;;;;5053320;28;20755;-77
2022/10/30 03:04:58;;;;;;;11.95;6.63;;;15.50;86.00;;;;;;5058226;28;20417;-75
2022/10/30 03:07:25;;;;;;;12.20;7.70;;;15.50;86.00;;;;;;5060514;28;20890;-75
2022/10/30 03:09:53;;;;;;;9.60;6.83;;;15.50;86.30;;;;;;5053300;28;20432;-76
2022/10/30 03:12:21;;;;;;;8.05;7.25;;;15.40;86.50;;;;;;5051601;28;20528;-75
2022/10/30 03:14:48;;;;;;;11.82;6.60;;;15.40;86.60;;;;;;5053576;28;20456;-74
2022/10/30 03:17:15;;;;;;;10.02;6.75;;;15.40;86.90;;;;;;5055209;28;20436;-75
2022/10/30 03:19:41;;;;;;;9.00;6.90;;;15.40;87.00;;;;;;5051882;28;21186;-76
2022/10/30 03:22:08;;;;;;;8.30;7.03;;;15.30;87.40;;;;;;5051039;28;20410;-75
2022/10/30 03:24:35;;;;;;;10.80;7.20;;;15.30;87.30;;;;;;5050992;28;20444;-75
2022/10/30 03:27:01;;;;;;;11.20;7.60;;;15.30;87.50;;;;;;5045698;28;20425;-76
2022/10/30 03:29:30;;;;;;;10.85;7.20;;;15.30;87.60;;;;;;5046390;28;20508;-76
2022/10/30 03:31:56;;;;;;;8.45;7.57;;;15.30;87.80;;;;;;5045172;28;20433;-78
2022/10/30 03:34:23;;;;;;;10.05;7.47;;;15.30;87.70;;;;;;5047333;28;20432;-77
2022/10/30 03:36:50;;;;;;;7.63;6.75;;;15.30;87.90;;;;;;5048226;28;20920;-76
2022/10/30 03:39:17;;;;;;;10.18;6.93;;;15.30;87.70;;;;;;5048112;28;20424;-77
2022/10/30 03:41:44;;;;;;;8.00;7.20;;;15.20;87.70;;;;;;5047587;28;20500;-76
2022/10/30 03:44:10;;;;;;;8.40;7.20;;;15.20;87.90;;;;;;5047245;28;20915;-77
2022/10/30 03:46:38;;;;;;;9.38;7.53;;;15.20;87.90;;;;;;5045699;28;20436;-77
2022/10/30 03:49:05;;;;;;;8.15;7.35;;;15.20;88.20;;;;;;5046176;28;20424;-77
2022/10/30 03:51:32;;;;;;;10.63;7.60;;;15.20;88.20;;;;;;5048613;28;20883;-76
2022/10/30 03:53:59;;;;;;;10.23;6.60;;;15.20;88.20;;;;;;5047555;28;20504;-76
2022/10/30 03:56:25;;;;;;;9.07;6.75;;;15.20;88.20;;;;;;5050712;28;20460;-75
2022/10/30 03:58:52;;;;;;;10.93;7.43;;;15.10;88.20;;;;;;5050690;28;20777;-77
2022/10/30 04:01:19;;;;;;;10.60;7.40;;;15.10;88.00;;;;;;5050690;28;20478;-77
2022/10/30 04:03:47;;;;;;;8.67;6.90;;;15.10;88.20;;;;;;5051985;28;20776;-76
2022/10/30 04:06:14;;;;;;;8.43;6.93;;;15.10;88.70;;;;;;5050983;28;20627;-75
2022/10/30 04:08:41;;;;;;;9.85;7.13;;;15.10;88.50;;;;;;5050553;28;20432;-76
2022/10/30 04:11:09;;;;;;;10.38;6.90;;;15.10;88.40;;;;;;5053125;28;20431;-76
2022/10/30 04:13:36;;;;;;;9.40;7.25;;;15.10;88.50;;;;;;5041070;28;20429;-76
2022/10/30 04:16:05;;;;;;;9.85;7.30;;;15.10;88.60;;;;;;5048931;28;20442;-76
2022/10/30 04:18:32;;;;;;;11.48;8.18;;;15.00;88.70;;;;;;5051244;28;20429;-75
2022/10/30 04:21:00;;;;;;;8.88;7.97;;;15.00;88.70;;;;;;5051759;28;20418;-76
2022/10/30 04:23:27;;;;;;;8.45;6.90;;;15.00;88.60;;;;;;5049490;28;20425;-78
2022/10/30 04:25:54;;;;;;;9.60;6.90;;;15.00;88.60;;;;;;5051254;28;20459;-76
2022/10/30 04:28:21;;;;;;;8.63;7.03;;;15.00;88.50;;;;;;5052360;28;20417;-77
2022/10/30 04:30:48;;;;;;;9.98;7.40;;;15.00;88.90;;;;;;5051346;28;20429;-77
2022/10/30 04:33:15;;;;;;;10.52;7.10;;;15.00;88.90;;;;;;5051424;28;20436;-76
2022/10/30 04:35:42;;;;;;;9.00;6.80;;;15.00;88.80;;;;;;5057604;28;20472;-77
2022/10/30 04:38:12;;;;;;;8.68;7.22;;;15.00;88.80;;;;;;5051406;28;20436;-75
2022/10/30 04:40:42;;;;;;;9.00;7.27;;;14.90;88.80;;;;;;5052703;28;20420;-77
2022/10/30 04:43:10;;;;;;;10.20;7.72;;;14.90;89.00;;;;;;5051434;28;20479;-77
2022/10/30 04:45:38;;;;;;;9.85;7.75;;;14.90;89.40;;;;;;5043454;28;20437;-74
2022/10/30 04:48:06;;;;;;;8.37;7.30;;;14.90;89.50;;;;;;5047472;28;20433;-75
2022/10/30 04:50:34;;;;;;;11.98;8.13;;;14.80;89.50;;;;;;5050877;28;20434;-76
2022/10/30 04:53:12;;;;;;;10.10;7.63;;;14.80;89.60;;;;;;5058777;28;20431;-75
2022/10/30 04:55:38;;;;;;;9.75;7.40;;;14.80;89.80;;;;;;5064412;28;20515;-76
2022/10/30 04:58:06;;;;;;;11.27;7.45;;;14.80;89.80;;;;;;5047085;28;20430;-77
2022/10/30 05:00:33;;;;;;;9.15;7.57;;;14.70;89.70;;;;;;5044200;28;20843;-76
2022/10/30 05:03:01;;;;;;;9.52;7.55;;;14.70;89.90;;;;;;5047731;28;20426;-77
2022/10/30 05:05:28;;;;;;;12.20;7.60;;;14.70;90.10;;;;;;5048425;28;20440;-76
2022/10/30 05:07:54;;;;;;;10.10;7.50;;;14.70;90.10;;;;;;5049959;28;20426;-76
2022/10/30 05:10:22;;;;;;;8.90;7.40;;;14.70;90.00;;;;;;5044682;28;20429;-74
2022/10/30 05:12:51;;;;;;;10.15;7.38;;;14.70;90.10;;;;;;5048790;28;20440;-76
2022/10/30 05:15:18;;;;;;;10.85;7.32;;;14.70;90.20;;;;;;5051148;28;20859;-77
2022/10/30 05:17:45;;;;;;;11.48;7.68;;;14.70;90.20;;;;;;5053852;28;20840;-78
2022/10/30 05:20:12;;;;;;;10.23;7.80;;;14.60;90.30;;;;;;5052091;28;20432;-77
2022/10/30 05:22:39;;;;;;;11.63;7.53;;;14.60;90.40;;;;;;5068684;28;20422;-79
2022/10/30 05:25:06;;;;;;;11.85;7.65;;;14.60;90.30;;;;;;5054951;28;20429;-75
2022/10/30 05:27:34;;;;;;;9.48;7.10;;;14.60;90.30;;;;;;5048289;28;20425;-76
2022/10/30 05:30:01;;;;;;;11.88;7.90;;;14.60;90.20;;;;;;5053896;28;20445;-76
2022/10/30 05:32:28;;;;;;;10.98;7.72;;;14.60;90.30;;;;;;5054841;28;20807;-76
2022/10/30 05:34:54;;;;;;;10.52;7.32;;;14.60;90.30;;;;;;5050994;28;20442;-76
2022/10/30 05:37:21;;;;;;;9.60;7.20;;;14.60;90.30;;;;;;5055289;28;20438;-77
2022/10/30 05:39:48;;;;;;;9.85;6.97;;;14.60;90.10;;;;;;5052117;28;20421;-76
2022/10/30 05:42:15;;;;;;;8.20;6.75;;;14.60;89.80;;;;;;5051152;28;20942;-80
2022/10/30 05:44:43;;;;;;;8.65;6.70;;;14.50;89.70;;;;;;5070281;28;20444;-76
2022/10/30 05:47:11;;;;;;;7.95;7.03;;;14.50;89.40;;;;;;5076051;28;20425;-76
2022/10/30 05:49:38;;;;;;;7.90;7.10;;;14.50;89.60;;;;;;5065187;28;20482;-77
2022/10/30 05:52:05;;;;;;;8.13;7.07;;;14.50;89.60;;;;;;5056999;28;20433;-77
2022/10/30 05:54:32;;;;;;;8.70;7.30;;;14.50;89.60;;;;;;5049205;28;20452;-77
2022/10/30 05:56:59;;;;;;;9.90;7.95;;;14.50;89.60;;;;;;5044528;28;20459;-76
2022/10/30 05:59:25;;;;;;;10.52;7.07;;;14.40;89.80;;;;;;5046461;28;20435;-77
2022/10/30 06:01:54;;;;;;;11.73;8.07;;;14.40;90.10;;;;;;5049557;28;20437;-76
2022/10/30 06:04:21;;;;;;;11.68;7.85;;;14.40;90.20;;;;;;5047746;28;20434;-77
2022/10/30 06:06:48;;;;;;;9.25;8.00;;;14.30;90.10;;;;;;5037598;28;20411;-78
2022/10/30 06:09:14;;;;;;;10.27;8.57;;;14.30;90.10;;;;;;5047555;28;20425;-75
2022/10/30 06:11:41;;;;;;;11.10;7.90;;;14.30;90.40;;;;;;5048187;28;20446;-76
2022/10/30 06:14:08;;;;;;;10.60;8.38;;;14.20;90.30;;;;;;5048673;28;21128;-76
2022/10/30 06:16:35;;;;;;;10.63;8.07;;;14.20;90.30;;;;;;5054097;28;20436;-77
2022/10/30 06:19:03;;;;;;;11.35;8.07;;;14.20;90.40;;;;;;5067769;28;20539;-75
2022/10/30 06:21:29;;;;;;;13.48;7.90;;;14.20;90.60;;;;;;5072117;28;20429;-77
2022/10/30 06:23:57;;;;;;;9.57;7.13;;;14.10;90.60;;;;;;5059720;28;20413;-77
2022/10/30 06:26:24;;;;;;;13.02;9.10;;;14.10;90.90;;;;;;5050578;28;20487;-76
2022/10/30 06:28:51;;;;;;;13.18;8.35;;;14.10;90.90;;;;;;5048835;28;20935;-74
2022/10/30 06:31:18;;;;;;;10.63;8.53;;;14.00;91.00;;;;;;5042761;28;20461;-76
2022/10/30 06:33:44;;;;;;;12.27;7.87;;;14.00;91.10;;;;;;5047196;28;20433;-76
2022/10/30 06:36:12;;;;;;;9.50;8.13;;;14.00;91.10;;;;;;5049173;28;20880;-75
2022/10/30 06:38:39;;;;;;;10.68;7.78;;;14.00;91.30;;;;;;5044393;28;20433;-76
2022/10/30 06:41:06;;;;;;;12.02;9.20;;;14.00;91.30;;;;;;5048268;28;20436;-76
2022/10/30 06:43:32;;;;;;;11.35;7.32;;;14.00;91.30;;;;;;5085398;22;20914;-73
2022/10/30 06:45:59;;;;;;;10.50;7.82;;;14.00;91.50;;;;;;5098319;28;20446;-72
2022/10/30 06:48:26;;;;;;;11.77;7.80;;;14.00;91.80;;;;;;5104121;28;20519;-73
2022/10/30 06:50:56;;;;;;;11.50;7.63;;;14.00;91.80;;;;;;5104662;28;20452;-73
2022/10/30 06:53:25;;;;;;;11.27;7.90;;;14.00;91.90;;;;;;5103132;28;20420;-73
2022/10/30 06:55:56;;;;;;;11.90;8.10;;;14.00;91.80;;;;;;5085854;28;20444;-72
2022/10/30 06:58:23;;;;;;;9.57;7.15;;;14.00;91.60;;;;;;5081505;28;20428;-73
2022/10/30 07:00:50;;;;;;;11.50;8.38;;;14.00;91.40;;;;;;5091444;28;20482;-73
2022/10/30 07:03:17;;;;;;;11.48;7.78;;;14.10;91.30;;;;;;5085623;28;20453;-73
2022/10/30 07:05:44;;;;;;;10.45;7.40;;;14.10;91.30;;;;;;5084058;28;20413;-73
2022/10/30 07:08:10;;;;;;;10.65;7.72;;;14.10;91.10;;;;;;5097471;28;20413;-73
2022/10/30 07:10:39;;;;;;;9.55;7.55;;;14.10;91.50;;;;;;5097090;28;20465;-73
2022/10/30 07:13:05;;;;;;;8.70;7.90;;;14.10;91.00;;;;;;5091305;28;20437;-73
2022/10/30 07:15:32;;;;;;;8.15;7.10;;;14.20;91.20;;;;;;5093212;28;20423;-73
2022/10/30 07:18:01;;;;;;;8.60;7.72;;;14.20;91.10;;;;;;5103796;28;20434;-73
2022/10/30 07:20:30;;;;;;;11.60;7.70;;;14.20;91.00;;;;;;5092096;28;20425;-73
2022/10/30 07:22:56;;;;;;;10.07;8.00;;;14.20;90.90;;;;;;5079461;28;20911;-73
2022/10/30 07:25:23;;;;;;;11.13;8.05;;;14.30;90.80;;;;;;5084543;28;20501;-74
2022/10/30 07:27:53;;;;;;;12.02;8.15;;;14.30;90.70;;;;;;5078008;28;20444;-73
2022/10/30 07:30:22;;;;;;;7.90;7.03;;;14.40;90.70;;;;;;5086380;28;20429;-73
2022/10/30 07:32:57;;;;;;;9.02;7.13;;;14.40;90.80;;;;;;5084381;28;20437;-73
2022/10/30 07:35:23;;;;;;;8.32;7.40;;;14.40;90.70;;;;;;5091003;28;20430;-75
2022/10/30 07:37:50;;;;;;;12.23;7.50;;;14.50;90.40;;;;;;5091511;28;20434;-74
2022/10/30 07:40:17;;;;;;;9.57;7.85;;;14.60;90.00;;;;;;5091351;28;20793;-73
2022/10/30 07:42:44;;;;;;;10.87;7.30;;;14.60;90.00;;;;;;5097519;28;20451;-73
2022/10/30 07:45:12;;;;;;;9.10;7.10;;;14.60;89.80;;;;;;5064679;28;20423;-73
2022/10/30 07:47:40;;;;;;;10.90;6.75;;;14.70;89.80;;;;;;5073294;28;20418;-74
2022/10/30 07:50:07;;;;;;;10.52;6.85;;;14.80;88.90;;;;;;5063386;28;20461;-74
2022/10/30 07:52:34;;;;;;;10.98;7.38;;;14.90;88.30;;;;;;5067200;28;20438;-73
2022/10/30 07:55:01;;;;;;;9.55;7.20;;;15.00;87.30;;;;;;5064459;28;20462;-72
2022/10/30 07:57:30;;;;;;;9.63;7.37;;;15.00;87.00;;;;;;5068975;28;20909;-73
2022/10/30 07:59:57;;;;;;;10.30;7.70;;;15.20;86.00;;;;;;5065631;28;21152;-74
2022/10/30 08:02:25;;;;;;;10.07;8.10;;;15.30;85.70;;;;;;5068168;28;20709;-73
2022/10/30 08:04:51;;;;;;;9.32;7.10;;;15.50;85.80;;;;;;5062482;28;20511;-73
2022/10/30 08:07:19;;;;;;;9.90;7.45;;;15.70;84.20;;;;;;5064870;28;20439;-73
2022/10/30 08:09:46;;;;;;;9.50;7.45;;;15.90;83.00;;;;;;5080866;28;20904;-72
2022/10/30 08:12:13;;;;;;;8.23;6.93;;;16.10;81.80;;;;;;5060872;28;20912;-74
2022/10/30 08:14:40;;;;;;;11.43;6.90;;;16.30;81.50;;;;;;5065469;28;20427;-73
2022/10/30 08:17:09;;;;;;;10.38;7.10;;;16.40;80.70;;;;;;5064920;28;20450;-73
2022/10/30 08:19:37;;;;;;;9.65;7.10;;;16.60;79.90;;;;;;5065062;28;20485;-72
2022/10/30 08:22:04;;;;;;;7.82;6.95;;;16.80;78.70;;;;;;5065991;28;20453;-72
2022/10/30 08:24:31;;;;;;;8.23;7.05;;;17.00;78.20;;;;;;5065189;28;20819;-73
2022/10/30 08:26:57;;;;;;;9.23;6.60;;;17.30;77.20;;;;;;5062036;28;20556;-72
2022/10/30 08:29:24;;;;;;;10.80;7.50;;;17.40;76.40;;;;;;5066329;28;20489;-72
2022/10/30 08:31:51;;;;;;;7.50;6.20;;;17.60;75.20;;;;;;5057303;28;20456;-75
2022/10/30 08:34:18;;;;;;;8.60;6.28;;;17.70;73.90;;;;;;5058326;28;20431;-74
2022/10/30 08:36:48;;;;;;;9.88;6.30;;;17.60;73.70;;;;;;5066928;28;20896;-75
2022/10/30 08:39:15;;;;;;;10.43;6.63;;;17.60;73.60;;;;;;5070154;28;20424;-74
2022/10/30 08:41:42;;;;;;;9.23;6.50;;;17.60;73.70;;;;;;5056940;28;20430;-74
2022/10/30 08:44:09;;;;;;;10.77;6.80;;;17.60;73.40;;;;;;5081395;28;20430;-73
2022/10/30 08:46:35;;;;;;;8.70;6.93;;;17.60;73.70;;;;;;5084345;28;20764;-74
2022/10/30 08:49:02;;;;;;;7.30;5.97;;;17.60;74.20;;;;;;5084583;28;20517;-75
2022/10/30 08:51:32;;;;;;;9.20;6.47;;;17.60;74.00;;;;;;5082612;28;20520;-75
2022/10/30 08:54:00;;;;;;;9.70;5.85;;;17.70;73.60;;;;;;5084310;28;20528;-74
2022/10/30 08:56:27;;;;;;;7.28;5.90;;;17.80;73.50;;;;;;5082133;28;20433;-74
2022/10/30 08:58:53;;;;;;;8.20;6.30;;;17.80;72.80;;;;;;5078850;28;20432;-75
2022/10/30 09:01:20;;;;;;;8.88;5.88;;;17.90;72.30;;;;;;5095403;28;20452;-74
2022/10/30 09:03:47;;;;;;;9.93;6.25;;;17.90;72.20;;;;;;5083810;28;20445;-69
2022/10/30 09:06:14;;;;;;;8.68;6.13;;;17.90;72.40;;;;;;5089602;28;20430;-67
2022/10/30 09:08:40;;;;;;;9.35;6.38;;;18.00;71.80;;;;;;5084079;28;20485;-66
2022/10/30 09:11:08;;;;;;;7.50;5.43;;;18.10;71.00;;;;;;5079967;28;20541;-67
2022/10/30 09:13:35;;;;;;;6.88;5.30;;;18.10;70.90;;;;;;5084716;28;20433;-67
2022/10/30 09:16:02;;;;;;;6.25;5.40;;;18.20;71.20;;;;;;5088184;28;20490;-67
2022/10/30 09:18:29;;;;;;;9.93;5.80;;;18.40;70.60;;;;;;5095508;28;20435;-67
2022/10/30 09:20:56;;;;;;;8.15;5.95;;;18.50;69.20;;;;;;5085331;28;20430;-67
2022/10/30 09:23:22;;;;;;;6.20;5.53;;;18.70;69.40;;;;;;5096030;28;20770;-67
2022/10/30 09:25:49;;;;;;;9.90;6.28;;;18.80;68.50;;;;;;5099161;28;20432;-65
2022/10/30 09:28:17;;;;;;;11.35;5.90;;;18.90;68.20;;;;;;5085200;28;20436;-65
2022/10/30 09:30:44;;;;;;;9.87;5.47;;;19.10;67.10;;;;;;5080277;28;20764;-66
2022/10/30 09:33:11;;;;;;;7.07;5.05;;;19.30;66.70;;;;;;5077416;28;20449;-64
2022/10/30 09:35:37;;;;;;;9.30;5.60;;;19.50;65.50;;;;;;5089705;28;20447;-65
2022/10/30 09:38:04;;;;;;;10.50;5.90;;;19.60;65.10;;;;;;5100712;28;20423;-67
2022/10/30 09:40:44;;;;;;;8.50;6.03;;;19.90;64.40;;;;;;5084599;28;20470;-66
2022/10/30 09:43:25;;;;;;;9.80;5.80;;;20.10;63.50;;;;;;5085503;28;20449;-65
2022/10/30 09:46:22;;;;;;;9.00;5.30;;;20.30;62.90;;;;;;5061503;28;20431;-67
2022/10/30 09:49:13;;;;;;;8.05;5.43;;;20.30;62.10;;;;;;5044549;28;20439;-65
2022/10/30 09:52:03;;;;;;;7.20;5.20;;;20.30;62.20;;;;;;5062940;28;20506;-67
2022/10/30 09:54:39;;;;;;;8.73;5.88;;;20.30;62.20;;;;;;5062562;28;20435;-66
2022/10/30 09:57:15;;;;;;;6.70;5.20;;;20.30;62.70;;;;;;5061687;28;20435;-65
2022/10/30 09:59:59;;;;;;;7.95;5.40;;;20.50;62.20;;;;;;5068119;28;20423;-67
2022/10/30 10:02:34;;;;;;;8.45;5.40;;;20.60;61.40;;;;;;5058906;28;20432;-68
2022/10/30 10:05:12;;;;;;;8.48;5.20;;;20.60;61.40;;;;;;5061376;28;21111;-65
2022/10/30 10:07:42;;;;;;;10.32;5.35;;;20.70;60.90;;;;;;5053363;28;20489;-65
2022/10/30 10:10:15;;;;;;;7.25;5.10;;;21.20;59.80;;;;;;5059438;28;20427;-66
2022/10/30 10:12:47;;;;;;;6.85;4.70;;;21.40;58.90;;;;;;5058055;28;20544;-65
2022/10/30 10:15:21;;;;;;;6.40;5.40;;;21.40;58.50;;;;;;5060345;28;20925;-65
2022/10/30 10:17:48;;;;;;;6.97;5.18;;;21.60;57.60;;;;;;5057592;28;20869;-63
2022/10/30 10:20:19;;;;;;;7.37;4.80;;;21.60;58.00;;;;;;5054671;28;20443;-63
2022/10/30 10:22:49;;;;;;;8.10;4.60;;;21.80;57.50;;;;;;5059557;28;20427;-64
2022/10/30 10:25:18;;;;;;;8.43;4.70;;;22.20;56.50;;;;;;5052022;28;20492;-64
2022/10/30 10:27:56;;;;;;;7.95;5.03;;;22.40;55.60;;;;;;5058116;28;20446;-64
2022/10/30 10:30:25;;;;;;;6.93;4.53;;;22.40;55.60;;;;;;5054343;28;20837;-63
2022/10/30 10:33:19;;;;;;;8.68;5.07;;;22.40;55.00;;;;;;5060262;28;20439;-64
2022/10/30 10:36:16;;;;;;;7.30;4.70;;;22.30;55.20;;;;;;5056572;28;20427;-63
2022/10/30 10:39:04;;;;;;;5.80;4.57;;;22.20;55.80;;;;;;5059664;28;20902;-67
2022/10/30 10:41:47;;;;;;;6.78;4.90;;;22.20;55.80;;;;;;5055473;28;20436;-65
2022/10/30 10:44:28;;;;;;;8.50;5.05;;;22.30;56.00;;;;;;5049644;28;20434;-64
2022/10/30 10:47:18;;;;;;;9.55;5.40;;;22.20;56.10;;;;;;5050768;28;20890;-63
2022/10/30 10:50:02;;;;;;;7.22;4.90;;;22.30;56.00;;;;;;5056738;28;20423;-63
2022/10/30 10:52:36;;;;;;;7.03;5.25;;;22.40;55.40;;;;;;5054784;28;20904;-63
2022/10/30 10:55:09;;;;;;;7.70;4.90;;;22.40;55.30;;;;;;5057964;28;20445;-63
2022/10/30 10:57:40;;;;;;;8.43;4.50;;;22.50;55.80;;;;;;5057763;28;20431;-63
2022/10/30 11:00:13;;;;;;;6.22;4.03;;;22.70;54.20;;;;;;5058117;28;20647;-63
2022/10/30 11:02:47;;;;;;;7.70;4.65;;;22.80;54.40;;;;;;5057470;28;20427;-63
2022/10/30 11:05:24;;;;;;;6.80;4.70;;;22.80;54.30;;;;;;5061130;28;20442;-63
2022/10/30 11:07:51;;;;;;;7.70;4.50;;;22.80;55.00;;;;;;5052904;28;21035;-64
2022/10/30 11:10:19;;;;;;;6.85;4.95;;;23.00;54.70;;;;;;5065383;28;20407;-64
2022/10/30 11:12:46;;;;;;;6.95;4.78;;;23.10;54.00;;;;;;5055442;28;20427;-64
2022/10/30 11:15:34;;;;;;;7.97;4.60;;;23.20;53.80;;;;;;5049623;28;20451;-64
2022/10/30 11:18:05;;;;;;;7.50;4.40;;;23.20;54.20;;;;;;5058296;28;20435;-63
2022/10/30 11:20:40;;;;;;;6.85;4.97;;;23.30;53.10;;;;;;5053990;28;20518;-63
2022/10/30 11:23:32;;;;;;;8.85;4.30;;;23.50;53.20;;;;;;5055857;28;20435;-63
2022/10/30 11:25:59;;;;;;;7.30;4.30;;;23.60;52.80;;;;;;5053415;28;20435;-64
2022/10/30 11:28:40;;;;;;;7.35;4.90;;;23.70;52.50;;;;;;5057491;28;20427;-66
2022/10/30 11:31:26;;;;;;;7.10;4.40;;;23.80;52.80;;;;;;5055102;28;20457;-65
2022/10/30 11:33:54;;;;;;;7.43;4.10;;;23.90;52.00;;;;;;5056303;28;20412;-65
2022/10/30 11:36:23;;;;;;;6.10;4.18;;;24.10;51.60;;;;;;5058079;28;20431;-65
2022/10/30 11:38:50;;;;;;;6.93;4.47;;;24.10;50.40;;;;;;5058875;28;20444;-63
2022/10/30 11:41:18;;;;;;;8.35;4.50;;;24.00;51.00;;;;;;5053480;28;20439;-65
2022/10/30 11:43:47;;;;;;;6.93;4.25;;;24.00;50.70;;;;;;5052103;28;20435;-63
2022/10/30 11:46:22;;;;;;;6.32;3.85;;;24.00;50.70;;;;;;5053381;28;20443;-63
2022/10/30 11:48:53;;;;;;;8.88;4.25;;;24.10;50.30;;;;;;5056539;28;20462;-63
2022/10/30 11:51:33;;;;;;;7.20;4.10;;;24.20;49.90;;;;;;5055670;28;20433;-63
2022/10/30 11:54:02;;;;;;;4.60;4.13;;;24.40;49.90;;;;;;5056677;28;20520;-65
2022/10/30 11:56:30;;;;;;;8.32;4.10;;;24.60;49.80;;;;;;5058613;28;20489;-65
2022/10/30 11:58:59;;;;;;;6.30;4.20;;;24.80;48.50;;;;;;5060170;28;20880;-65
2022/10/30 12:01:28;;;;;;;6.85;3.75;;;24.80;49.70;;;;;;5054429;28;20442;-67
2022/10/30 12:03:55;;;;;;;7.55;4.30;;;24.90;48.40;;;;;;5055871;28;20431;-66
2022/10/30 12:06:28;;;;;;;6.47;4.65;;;24.70;49.20;;;;;;5058196;28;20443;-66
2022/10/30 12:09:04;;;;;;;5.18;4.00;;;24.50;49.70;;;;;;5057927;28;20427;-65
2022/10/30 12:11:33;;;;;;;5.75;4.35;;;24.30;49.80;;;;;;5058121;28;20442;-65
2022/10/30 12:14:00;;;;;;;8.10;4.40;;;24.30;49.50;;;;;;5057569;28;20672;-65
2022/10/30 12:16:28;;;;;;;7.63;3.90;;;24.20;50.10;;;;;;5059500;28;20445;-63
2022/10/30 12:19:00;;;;;;;7.95;4.00;;;24.20;49.70;;;;;;5059995;28;20438;-64
2022/10/30 12:21:29;;;;;;;5.82;4.00;;;24.20;50.40;;;;;;5064389;28;20888;-64
2022/10/30 12:24:00;;;;;;;9.18;4.03;;;24.20;49.90;;;;;;5061968;28;20435;-64
2022/10/30 12:26:29;;;;;;;8.05;4.10;;;24.30;49.60;;;;;;5063838;28;20492;-64
2022/10/30 12:29:00;;;;;;;6.63;4.10;;;24.30;49.90;;;;;;5063750;28;20526;-63
2022/10/30 12:31:34;;;;;;;6.63;3.97;;;24.40;48.60;;;;;;5055465;28;20444;-64
2022/10/30 12:34:22;;;;;;;6.65;4.28;;;24.50;49.20;;;;;;5056719;28;20476;-64
2022/10/30 12:36:54;;;;;;;6.50;4.00;;;24.40;48.50;;;;;;5061360;28;20882;-64
2022/10/30 12:39:27;;;;;;;6.38;3.60;;;24.20;49.30;;;;;;5057476;28;20467;-64
2022/10/30 12:42:01;;;;;;;6.68;3.60;;;24.10;49.20;;;;;;5060290;28;20438;-64
2022/10/30 12:44:30;;;;;;;6.43;4.10;;;23.90;49.60;;;;;;5070440;28;20433;-64
2022/10/30 12:47:04;;;;;;;6.43;3.40;;;23.80;50.60;;;;;;5088851;28;20438;-65
2022/10/30 12:49:39;;;;;;;8.93;4.05;;;23.80;50.20;;;;;;5092262;28;20439;-63
2022/10/30 12:52:12;;;;;;;5.18;3.55;;;23.80;50.50;;;;;;5091194;28;20425;-64
2022/10/30 12:54:45;;;;;;;6.75;3.63;;;23.90;50.30;;;;;;5082247;28;20426;-63
2022/10/30 12:57:16;;;;;;;7.57;3.92;;;23.90;49.60;;;;;;5076849;28;20891;-64